Buffalo, SD (57720)

8:08 PM MST on December 08, 2016 (GMT -0700)
Hettinger Municipal | | Change Station

Elev 2703 ft 46.01 °N, 102.66 °W | Updated 15 minutes ago

Clear
Clear
-11 °F
Feels Like -11 °F
N
0
Wind Variable Wind from North

Today
High -- | Low -- °F
--% Chance of Precip.
Yesterday
High -- | Low -- °F
Precip. -- in
Pressure 30.75 in
Visibility 10.0 miles
Clouds Clear
Dew Point -16 °F
Humidity 78%
Rainfall 0.00 in
Snow Depth Not available.
7:22 AM 4:10 PM
Waxing Gibbous, 69% visible
METAR KHEI 090253Z AUTO 00000KT 10SM CLR M24/M27 A3049 RMK AO2 SLP411 I1000 I3000 T12391267 58013
Pressure 30.75 in
Visibility 10.0 miles
Clouds Clear
Dew Point -16 °F
Humidity 78%
Rainfall 0.00 in
Snow Depth Not available.
7:22 AM 4:10 PM
Waxing Gibbous, 69% visible
METAR KHEI 090253Z AUTO 00000KT 10SM CLR M24/M27 A3049 RMK AO2 SLP411 I1000 I3000 T12391267 58013

10-Day Weather Forecast

Almanac

Astronomy

Dec. 08, 2016 Rise Set
Actual Time
Civil Twilight
Nautical Twilight
Astronomical Twilight
Moon
Length of Visible Light
Length of Day
Tomorrow will be .
, % of the Moon is Illuminated

Today's Extremes

State Highs State Lows

Community

WunderPhotos

Upload Photos

1,956,351 photos uploaded!

WunderBlog® & News

Nearby

Air Quality

  Air Quality AQ Index Pollutant
Not available.

Snow Depth

Station Depth Elevation

Earthquake Activity

City Distance Mag. Time & Date
Minimum magnitude displayed is 2.5.

Coastal Water Temperatures

Place Temperature

Stations

Nearby Weather Stations

Station Location Temp. Windchill Dew Point Humidity Wind Precip. Elev Updated Type
                   

Watches & Warnings

There are currently no watches in effect.